Time;durP1;ratioP1;P1;durP2;ratioP2;P2;SDS_P1;SDS_P2;PMS_P1;PMS_P2;Temp;Humidity;BMP_temperature;BMP_pressure;BME280_temperature;BME280_humidity;BME280_pressure;Samples;Min_cycle;Max_cycle;Signal;HPM_P1;HPM_P2
2021/01/05 00:00:30;;;;;;;17.02;7.82;;;3.50;83.90;;;;;;4976188;28;20023;-91
2021/01/05 00:02:57;;;;;;;18.40;8.45;;;3.50;83.90;;;;;;4958786;28;20023;-92
2021/01/05 00:05:24;;;;;;;18.75;8.18;;;3.50;83.90;;;;;;4958677;28;20047;-93
2021/01/05 00:07:50;;;;;;;19.27;8.05;;;3.50;83.70;;;;;;4959226;28;20023;-93
2021/01/05 00:10:18;;;;;;;21.45;8.48;;;3.50;83.80;;;;;;4943541;28;20065;-93
2021/01/05 00:12:43;;;;;;;16.65;7.60;;;3.50;83.90;;;;;;4942038;28;20027;-92
2021/01/05 00:15:11;;;;;;;19.52;8.77;;;3.50;83.80;;;;;;4941200;28;20038;-93
2021/01/05 00:17:38;;;;;;;17.15;7.07;;;3.50;84.00;;;;;;4942039;28;20058;-92
2021/01/05 00:20:24;;;;;;;20.70;9.27;;;3.50;83.90;;;;;;4941555;28;20468;-92
2021/01/05 00:22:50;;;;;;;19.85;8.93;;;3.50;83.70;;;;;;4956931;28;20089;-91
2021/01/05 00:25:18;;;;;;;18.35;7.45;;;3.50;83.70;;;;;;4942003;28;20483;-93
2021/01/05 00:27:44;;;;;;;18.35;8.40;;;3.50;84.00;;;;;;4958176;28;20031;-93
2021/01/05 00:30:16;;;;;;;15.90;7.70;;;3.50;84.00;;;;;;4957290;28;20047;-94
2021/01/05 00:32:44;;;;;;;19.90;8.60;;;3.50;84.10;;;;;;4957725;28;20089;-93
2021/01/05 00:35:12;;;;;;;16.00;7.03;;;3.50;84.10;;;;;;4957137;28;20041;-91
2021/01/05 00:37:38;;;;;;;17.00;8.18;;;3.60;84.50;;;;;;4957553;28;20026;-92
2021/01/05 00:40:06;;;;;;;18.42;8.05;;;3.60;84.10;;;;;;4941189;28;20035;-93
2021/01/05 00:42:32;;;;;;;17.77;7.38;;;3.60;84.20;;;;;;4956405;28;20035;-90
2021/01/05 00:44:58;;;;;;;22.17;7.85;;;3.60;84.20;;;;;;4941125;28;20041;-92
2021/01/05 00:47:23;;;;;;;17.17;7.75;;;3.60;84.10;;;;;;4941805;28;20027;-92
2021/01/05 00:49:49;;;;;;;16.60;7.28;;;3.60;84.20;;;;;;4941286;28;20282;-91
2021/01/05 00:52:15;;;;;;;18.42;8.13;;;3.70;84.00;;;;;;4941438;28;20064;-91
2021/01/05 00:54:40;;;;;;;18.15;8.38;;;3.60;84.00;;;;;;4957582;28;20033;-92
2021/01/05 00:57:08;;;;;;;16.75;7.97;;;3.60;83.90;;;;;;4957855;28;20115;-93
2021/01/05 00:59:34;;;;;;;18.83;7.43;;;3.60;84.00;;;;;;4944595;28;20117;-92
2021/01/05 01:02:00;;;;;;;17.13;7.30;;;3.70;84.10;;;;;;4945001;28;20019;-92
2021/01/05 01:04:27;;;;;;;19.27;7.80;;;3.70;84.20;;;;;;4944460;28;20049;-91
2021/01/05 01:06:54;;;;;;;18.27;7.30;;;3.70;84.70;;;;;;4955760;28;20029;-95
2021/01/05 01:09:19;;;;;;;19.00;7.97;;;3.70;84.20;;;;;;4945580;28;20030;-95
2021/01/05 01:12:12;;;;;;;16.85;7.18;;;3.60;83.90;;;;;;4961264;28;20498;-94
2021/01/05 01:14:38;;;;;;;20.70;8.98;;;3.70;84.30;;;;;;4956841;28;20471;-94
2021/01/05 01:17:04;;;;;;;18.77;7.47;;;3.70;84.20;;;;;;4944545;28;20052;-92
2021/01/05 01:19:30;;;;;;;16.83;7.97;;;3.70;84.20;;;;;;4944556;28;20078;-91
2021/01/05 01:21:56;;;;;;;20.40;7.38;;;3.70;84.10;;;;;;4943725;28;20030;-90
2021/01/05 01:24:25;;;;;;;16.58;7.47;;;3.70;84.80;;;;;;4946360;28;20038;-95
2021/01/05 01:26:51;;;;;;;18.55;7.43;;;3.70;84.00;;;;;;4957912;28;20035;-96
2021/01/05 01:29:18;;;;;;;15.65;7.63;;;3.70;83.70;;;;;;4954838;28;20035;-96
2021/01/05 01:31:45;;;;;;;18.27;7.88;;;3.60;83.90;;;;;;4984183;28;20127;-95
2021/01/05 01:34:12;;;;;;;15.02;6.93;;;3.60;83.90;;;;;;4976950;28;20030;-95
2021/01/05 01:36:37;;;;;;;18.60;7.47;;;3.60;84.20;;;;;;4961603;28;20030;-92
2021/01/05 01:39:05;;;;;;;14.25;6.47;;;3.60;84.00;;;;;;4960905;28;20023;-93
2021/01/05 01:41:32;;;;;;;16.92;7.55;;;3.60;84.10;;;;;;4960769;28;20107;-92
2021/01/05 01:43:58;;;;;;;15.98;6.97;;;3.60;84.00;;;;;;4956075;28;20035;-93
2021/01/05 01:46:25;;;;;;;17.52;6.88;;;3.60;83.90;;;;;;4960650;28;20055;-93
2021/01/05 01:48:52;;;;;;;14.27;6.85;;;3.60;84.00;;;;;;4960671;28;20054;-92
2021/01/05 01:51:18;;;;;;;18.13;7.13;;;3.60;84.00;;;;;;4961545;28;20498;-92
2021/01/05 01:54:04;;;;;;;15.15;6.60;;;3.60;84.20;;;;;;4944527;28;20082;-94
2021/01/05 01:56:56;;;;;;;15.52;7.38;;;3.60;84.00;;;;;;4960388;28;20050;-93
2021/01/05 01:59:34;;;;;;;15.80;7.35;;;3.60;84.10;;;;;;4977747;28;20023;-94
2021/01/05 02:02:03;;;;;;;15.90;7.15;;;3.60;83.90;;;;;;4960045;28;20018;-92
2021/01/05 02:04:51;;;;;;;15.45;7.22;;;3.60;84.00;;;;;;4959532;28;20027;-93
2021/01/05 02:07:21;;;;;;;15.30;6.93;;;3.60;84.20;;;;;;4960146;28;20101;-92
2021/01/05 02:10:15;;;;;;;18.88;7.13;;;3.60;84.20;;;;;;4958891;28;20506;-93
2021/01/05 02:12:56;;;;;;;17.98;7.68;;;3.60;84.00;;;;;;4956929;28;20023;-94
2021/01/05 02:15:44;;;;;;;15.98;7.50;;;3.60;84.20;;;;;;4955193;28;20110;-94
2021/01/05 02:18:32;;;;;;;15.57;7.75;;;3.60;84.00;;;;;;4960036;28;20023;-94
2021/01/05 02:21:15;;;;;;;16.98;6.70;;;3.60;84.10;;;;;;4960813;28;20086;-93
2021/01/05 02:24:11;;;;;;;15.15;6.95;;;3.60;84.20;;;;;;4979916;28;20042;-89
2021/01/05 02:26:55;;;;;;;20.95;8.10;;;3.60;84.20;;;;;;4978223;28;20427;-95
2021/01/05 02:29:32;;;;;;;15.90;7.40;;;3.60;84.30;;;;;;4984774;28;20390;-95
2021/01/05 02:32:20;;;;;;;20.77;7.40;;;3.60;84.30;;;;;;4959595;28;20034;-93
2021/01/05 02:35:02;;;;;;;17.23;7.57;;;3.60;84.20;;;;;;4976732;28;20106;-91
2021/01/05 02:38:04;;;;;;;16.67;7.53;;;3.60;84.20;;;;;;4970514;28;20146;-92
2021/01/05 02:40:40;;;;;;;17.33;7.15;;;3.60;84.20;;;;;;4975909;28;20526;-92
2021/01/05 02:43:31;;;;;;;15.43;7.50;;;3.60;84.20;;;;;;4959343;28;20033;-93
2021/01/05 02:46:13;;;;;;;18.38;7.88;;;3.60;84.40;;;;;;4955715;28;20041;-92
2021/01/05 02:49:04;;;;;;;17.42;7.35;;;3.60;84.30;;;;;;4954658;28;20026;-92
2021/01/05 02:51:43;;;;;;;15.48;6.93;;;3.60;84.10;;;;;;4954641;28;20061;-93
2021/01/05 02:54:21;;;;;;;19.95;7.60;;;3.60;84.30;;;;;;4958854;28;20483;-93
2021/01/05 02:57:22;;;;;;;21.27;8.13;;;3.60;84.00;;;;;;4976659;28;20523;-92
2021/01/05 03:00:22;;;;;;;16.75;6.75;;;3.60;84.10;;;;;;4957631;28;20498;-92
2021/01/05 03:02:59;;;;;;;16.23;7.03;;;3.60;84.30;;;;;;4959040;28;20403;-92
2021/01/05 03:05:24;;;;;;;16.60;6.78;;;3.60;85.10;;;;;;4975773;28;20026;-92
2021/01/05 03:07:52;;;;;;;16.70;7.22;;;3.60;84.40;;;;;;4958444;28;20360;-93
2021/01/05 03:10:36;;;;;;;18.60;7.22;;;3.60;84.50;;;;;;4958600;28;20038;-91
2021/01/05 03:13:09;;;;;;;16.90;7.90;;;3.60;84.50;;;;;;4958318;28;20027;-91
2021/01/05 03:16:01;;;;;;;17.70;7.38;;;3.70;84.50;;;;;;4958983;28;20065;-93
2021/01/05 03:19:05;;;;;;;15.32;6.80;;;3.60;84.40;;;;;;4973849;28;20368;-93
2021/01/05 03:21:35;;;;;;;16.42;7.20;;;3.70;84.40;;;;;;4974785;28;20033;-93
2021/01/05 03:24:02;;;;;;;16.23;6.45;;;3.60;84.20;;;;;;4957717;28;20026;-91
2021/01/05 03:26:37;;;;;;;17.83;7.90;;;3.60;84.20;;;;;;4942372;28;20026;-91
2021/01/05 03:29:03;;;;;;;17.83;8.23;;;3.60;84.40;;;;;;4957981;28;20121;-92
2021/01/05 03:31:51;;;;;;;15.85;7.65;;;3.60;84.30;;;;;;4958347;28;20487;-90
2021/01/05 03:34:17;;;;;;;15.90;6.82;;;3.60;84.20;;;;;;4958031;28;20114;-91
2021/01/05 03:36:43;;;;;;;16.23;7.65;;;3.60;84.10;;;;;;4941675;28;20483;-90
2021/01/05 03:39:09;;;;;;;20.30;8.18;;;3.60;84.30;;;;;;4957770;28;20042;-90
2021/01/05 03:41:35;;;;;;;17.30;7.20;;;3.60;84.40;;;;;;4957706;28;20031;-90
2021/01/05 03:44:02;;;;;;;20.48;7.15;;;3.60;84.70;;;;;;4956833;28;20026;-91
2021/01/05 03:46:29;;;;;;;16.23;7.60;;;3.60;84.50;;;;;;4965564;28;20086;-89
2021/01/05 03:48:56;;;;;;;16.23;6.03;;;3.60;84.50;;;;;;4998527;28;20035;-90
2021/01/05 03:51:21;;;;;;;16.35;7.88;;;3.60;84.40;;;;;;4963640;28;20033;-90
2021/01/05 03:53:47;;;;;;;17.00;7.18;;;3.60;84.20;;;;;;4957636;28;20019;-91
2021/01/05 03:56:13;;;;;;;16.45;7.65;;;3.60;84.50;;;;;;4957422;28;20034;-90
2021/01/05 03:58:39;;;;;;;15.57;7.05;;;3.70;84.60;;;;;;4959723;28;20075;-91
2021/01/05 04:01:05;;;;;;;18.08;7.03;;;3.70;84.70;;;;;;4966535;28;20394;-91
2021/01/05 04:03:30;;;;;;;18.17;7.82;;;3.80;84.60;;;;;;4958725;28;20037;-90
2021/01/05 04:05:56;;;;;;;20.60;8.10;;;3.70;84.80;;;;;;4942192;28;20023;-91
2021/01/05 04:08:22;;;;;;;15.05;6.53;;;3.70;84.40;;;;;;4941921;28;20117;-91
2021/01/05 04:10:48;;;;;;;17.35;6.95;;;3.70;84.30;;;;;;4957599;28;20019;-92
2021/01/05 04:13:14;;;;;;;15.20;6.45;;;3.80;84.60;;;;;;4957640;28;20387;-92
2021/01/05 04:15:40;;;;;;;20.08;7.25;;;3.70;84.40;;;;;;4957609;28;20092;-92
2021/01/05 04:18:06;;;;;;;20.05;7.28;;;3.80;84.50;;;;;;4974850;28;20034;-91
2021/01/05 04:20:32;;;;;;;16.27;6.93;;;3.80;84.50;;;;;;4957297;28;20033;-89
2021/01/05 04:22:59;;;;;;;16.38;6.85;;;3.80;84.60;;;;;;4956256;28;20023;-91
2021/01/05 04:25:26;;;;;;;16.77;7.05;;;3.80;84.50;;;;;;4958186;28;20046;-93
2021/01/05 04:27:52;;;;;;;16.15;7.13;;;3.80;84.50;;;;;;4956826;28;20050;-88
2021/01/05 04:30:30;;;;;;;17.05;7.70;;;3.80;84.50;;;;;;4956383;28;20046;-88
2021/01/05 04:33:00;;;;;;;15.73;6.75;;;3.80;84.50;;;;;;4958789;28;20438;-90
2021/01/05 04:35:27;;;;;;;19.42;8.02;;;3.80;84.70;;;;;;4978126;28;20033;-91
2021/01/05 04:37:54;;;;;;;21.75;7.45;;;3.90;84.60;;;;;;4937532;28;20027;-90
2021/01/05 04:40:21;;;;;;;18.35;7.65;;;3.80;84.40;;;;;;4948276;28;20070;-91
2021/01/05 04:42:50;;;;;;;16.35;6.50;;;3.80;84.40;;;;;;4960359;28;20022;-89
2021/01/05 04:45:22;;;;;;;16.08;7.80;;;3.80;85.00;;;;;;4944026;28;20483;-88
2021/01/05 04:48:05;;;;;;;17.45;6.85;;;3.80;84.40;;;;;;4959900;28;20118;-89
2021/01/05 04:50:41;;;;;;;13.90;6.40;;;3.80;84.50;;;;;;4959776;28;20067;-89
2021/01/05 04:53:23;;;;;;;15.90;7.03;;;3.80;84.50;;;;;;4956222;28;20110;-89
2021/01/05 04:55:59;;;;;;;18.13;7.82;;;3.80;84.40;;;;;;4960094;28;20406;-89
2021/01/05 04:58:47;;;;;;;21.52;7.88;;;3.80;84.60;;;;;;4957398;28;20030;-90
2021/01/05 05:01:33;;;;;;;17.02;7.80;;;3.90;84.80;;;;;;4960201;28;20034;-89
2021/01/05 05:04:24;;;;;;;18.02;8.35;;;3.80;84.40;;;;;;4976450;28;20116;-88
2021/01/05 05:07:22;;;;;;;18.13;7.70;;;3.90;84.80;;;;;;4959375;28;20471;-89
2021/01/05 05:09:56;;;;;;;18.67;8.07;;;3.90;85.00;;;;;;4924835;28;20038;-90
2021/01/05 05:12:39;;;;;;;18.95;8.70;;;4.00;84.80;;;;;;4982256;28;20026;-88
2021/01/05 05:15:08;;;;;;;19.80;8.77;;;4.00;84.70;;;;;;4973897;28;20035;-91
2021/01/05 05:18:11;;;;;;;20.00;8.38;;;4.00;84.40;;;;;;4962887;28;20015;-91
2021/01/05 05:21:24;;;;;;;16.60;7.28;;;3.90;84.40;;;;;;4957231;28;20026;-91
2021/01/05 05:24:11;;;;;;;17.13;7.80;;;3.90;84.70;;;;;;4899566;29;20029;-93
2021/01/05 05:26:55;;;;;;;16.40;7.57;;;3.90;84.80;;;;;;4955998;28;20039;-92
2021/01/05 05:29:29;;;;;;;16.92;7.35;;;4.00;84.90;;;;;;4962255;28;20051;-95
2021/01/05 05:32:00;;;;;;;17.02;6.82;;;4.00;84.70;;;;;;4961219;28;20033;-95
2021/01/05 05:34:30;;;;;;;19.50;9.15;;;4.00;84.80;;;;;;4961016;28;20092;-95
2021/01/05 05:36:59;;;;;;;16.77;6.93;;;4.00;84.60;;;;;;4960915;28;20019;-94
2021/01/05 05:40:07;;;;;;;21.70;8.15;;;4.00;84.60;;;;;;4961076;28;20015;-95
2021/01/05 05:42:57;;;;;;;20.00;7.72;;;4.00;84.70;;;;;;4924513;28;20031;-91
2021/01/05 05:45:33;;;;;;;20.17;8.35;;;4.00;84.80;;;;;;4957477;28;20398;-90
2021/01/05 05:48:25;;;;;;;19.90;7.93;;;4.00;84.70;;;;;;4959761;28;20383;-91
2021/01/05 05:51:09;;;;;;;25.67;10.77;;;4.00;84.80;;;;;;4960962;28;20027;-90
2021/01/05 05:54:01;;;;;;;18.38;8.85;;;4.10;84.60;;;;;;4958278;28;20023;-91
2021/01/05 05:56:42;;;;;;;18.10;7.65;;;4.00;84.70;;;;;;4955324;28;20030;-92
2021/01/05 05:59:09;;;;;;;14.73;6.90;;;4.00;84.80;;;;;;4957450;28;20034;-92
2021/01/05 06:01:38;;;;;;;16.70;7.47;;;4.00;84.70;;;;;;4943943;28;20103;-90
2021/01/05 06:04:04;;;;;;;14.13;6.15;;;4.00;85.20;;;;;;4959378;28;20037;-92
2021/01/05 06:06:31;;;;;;;20.95;8.73;;;4.00;84.70;;;;;;4943752;28;20475;-91
2021/01/05 06:08:57;;;;;;;16.77;7.13;;;4.00;84.40;;;;;;4959087;28;20106;-91
2021/01/05 06:11:23;;;;;;;13.35;6.13;;;4.00;84.80;;;;;;4959276;28;20062;-91
2021/01/05 06:13:48;;;;;;;21.15;8.27;;;4.00;84.70;;;;;;4976930;28;20030;-91
2021/01/05 06:16:14;;;;;;;18.02;8.05;;;4.00;84.50;;;;;;4958799;28;20081;-87
2021/01/05 06:18:40;;;;;;;22.52;9.82;;;4.00;84.90;;;;;;4941988;28;20534;-87
2021/01/05 06:21:06;;;;;;;17.27;7.32;;;4.10;85.30;;;;;;4975637;28;20472;-88
2021/01/05 06:23:32;;;;;;;19.17;6.75;;;4.10;84.90;;;;;;4958148;28;20435;-87
2021/01/05 06:25:57;;;;;;;17.15;7.53;;;4.10;85.00;;;;;;4942141;28;20027;-87
2021/01/05 06:28:23;;;;;;;16.63;6.57;;;4.10;85.00;;;;;;4958935;28;20050;-87
2021/01/05 06:30:49;;;;;;;18.35;6.70;;;4.10;85.00;;;;;;4944104;28;20141;-87
2021/01/05 06:33:15;;;;;;;20.48;8.55;;;4.20;84.80;;;;;;4943987;28;20027;-88
2021/01/05 06:35:41;;;;;;;19.80;8.70;;;4.20;84.60;;;;;;4945955;28;20026;-88
2021/01/05 06:38:06;;;;;;;18.13;8.00;;;4.10;84.70;;;;;;4958160;28;20530;-82
2021/01/05 06:40:32;;;;;;;16.58;7.65;;;4.10;84.80;;;;;;4975737;28;20027;-88
2021/01/05 06:42:58;;;;;;;17.20;7.13;;;4.20;84.90;;;;;;4941638;28;20030;-85
2021/01/05 06:45:29;;;;;;;16.20;6.85;;;4.20;84.70;;;;;;4941295;28;20141;-85
2021/01/05 06:47:55;;;;;;;15.85;6.82;;;4.20;84.80;;;;;;4971927;28;20423;-85
2021/01/05 06:50:24;;;;;;;14.48;6.68;;;4.20;85.00;;;;;;4941482;28;20126;-85
2021/01/05 06:52:50;;;;;;;16.05;7.18;;;4.20;84.90;;;;;;4957465;28;20082;-85
2021/01/05 06:55:15;;;;;;;12.88;6.18;;;4.20;85.10;;;;;;4956730;28;20030;-86
2021/01/05 06:57:41;;;;;;;15.48;7.20;;;4.10;84.30;;;;;;4974311;28;20041;-87
2021/01/05 07:00:14;;;;;;;15.30;6.72;;;4.10;84.60;;;;;;4941093;28;20023;-88
2021/01/05 07:02:40;;;;;;;14.48;6.53;;;4.20;84.90;;;;;;4954616;28;20027;-87
2021/01/05 07:05:06;;;;;;;15.73;6.78;;;4.20;84.70;;;;;;4957083;28;20042;-87
2021/01/05 07:07:31;;;;;;;14.07;6.32;;;4.20;84.60;;;;;;4958694;28;20114;-92
2021/01/05 07:09:57;;;;;;;14.45;6.30;;;4.20;84.70;;;;;;4941731;28;20118;-92
2021/01/05 07:12:22;;;;;;;13.68;6.05;;;4.20;84.80;;;;;;4946847;28;20085;-91
2021/01/05 07:14:48;;;;;;;14.98;6.88;;;4.20;84.70;;;;;;4942759;28;20073;-91
2021/01/05 07:17:15;;;;;;;15.23;6.15;;;4.10;84.70;;;;;;4957870;28;20027;-89
2021/01/05 07:19:40;;;;;;;14.25;6.55;;;4.20;84.90;;;;;;4957051;28;20422;-89
2021/01/05 07:22:06;;;;;;;13.80;5.97;;;4.20;84.50;;;;;;4937653;28;20118;-90
2021/01/05 07:24:32;;;;;;;14.77;5.75;;;4.20;85.50;;;;;;4954518;28;20155;-91
2021/01/05 07:26:57;;;;;;;15.25;5.93;;;4.20;84.90;;;;;;4941183;28;20026;-88
2021/01/05 07:29:23;;;;;;;14.88;7.22;;;4.20;84.90;;;;;;4941655;28;20134;-88
2021/01/05 07:31:50;;;;;;;12.77;5.93;;;4.30;85.00;;;;;;4956573;28;20034;-88
2021/01/05 07:34:16;;;;;;;14.63;6.40;;;4.20;84.80;;;;;;4956796;28;20023;-89
2021/01/05 07:36:57;;;;;;;15.50;6.50;;;4.20;84.80;;;;;;4957584;28;20023;-90
2021/01/05 07:39:29;;;;;;;15.20;6.32;;;4.30;85.00;;;;;;4954620;28;20058;-90
2021/01/05 07:42:14;;;;;;;16.45;7.25;;;4.30;84.90;;;;;;4956554;28;20484;-89
2021/01/05 07:44:41;;;;;;;;;;;4.30;85.00;;;;;;4973471;28;20398;-90
2021/01/05 07:47:08;;;;;;;16.65;6.03;;;4.30;85.10;;;;;;4956528;28;20044;-89
2021/01/05 07:49:34;;;;;;;16.60;6.95;;;4.30;84.90;;;;;;4974070;28;20025;-88
2021/01/05 07:52:00;;;;;;;16.38;7.18;;;4.40;84.90;;;;;;4940269;28;20038;-90
2021/01/05 07:54:26;;;;;;;15.45;7.35;;;4.40;85.00;;;;;;4940788;28;20019;-89
2021/01/05 07:56:51;;;;;;;16.42;7.10;;;4.30;84.50;;;;;;4940686;28;20117;-89
2021/01/05 07:59:18;;;;;;;17.85;7.15;;;4.40;84.90;;;;;;4940696;28;20027;-90
2021/01/05 08:01:45;;;;;;;17.35;6.45;;;4.40;84.70;;;;;;4940840;28;20125;-89
2021/01/05 08:04:10;;;;;;;17.85;6.88;;;4.30;84.80;;;;;;4940476;28;20039;-90
2021/01/05 08:06:43;;;;;;;20.58;7.07;;;4.30;84.70;;;;;;4940752;28;20086;-90
2021/01/05 08:09:09;;;;;;;16.75;7.07;;;4.30;85.50;;;;;;4957392;28;20023;-89
2021/01/05 08:11:39;;;;;;;15.98;6.78;;;4.40;84.90;;;;;;4975483;28;20043;-92
2021/01/05 08:14:05;;;;;;;21.08;6.97;;;4.40;85.10;;;;;;4957810;28;20045;-91
2021/01/05 08:16:32;;;;;;;16.27;7.35;;;4.50;85.20;;;;;;4956499;28;20062;-89
2021/01/05 08:18:57;;;;;;;17.60;7.15;;;4.50;84.90;;;;;;4956119;28;20387;-88
2021/01/05 08:21:24;;;;;;;16.75;6.72;;;4.50;85.20;;;;;;4955820;28;20117;-89
2021/01/05 08:23:51;;;;;;;21.00;8.07;;;4.50;85.20;;;;;;4955896;28;20038;-90
2021/01/05 08:29:39;;;;;;;18.75;8.65;;;4.60;85.10;;;;;;4970327;28;20041;-95
2021/01/05 08:32:05;;;;;;;16.88;8.15;;;4.60;85.20;;;;;;4976180;28;20078;-93
2021/01/05 08:34:31;;;;;;;18.23;8.45;;;4.60;85.10;;;;;;4957058;28;20450;-93
2021/01/05 08:37:02;;;;;;;24.67;9.50;;;4.60;84.90;;;;;;4983142;28;20026;-91
2021/01/05 08:39:28;;;;;;;19.98;9.52;;;4.70;85.10;;;;;;4970085;28;20091;-93
2021/01/05 08:41:56;;;;;;;19.15;8.43;;;4.70;85.20;;;;;;4944396;28;20034;-93
2021/01/05 08:44:24;;;;;;;15.95;6.45;;;4.60;85.40;;;;;;4969373;28;20119;-93
2021/01/05 08:46:50;;;;;;;15.55;6.45;;;4.60;84.80;;;;;;4953190;28;20137;-92
2021/01/05 08:49:16;;;;;;;15.52;7.15;;;4.60;84.60;;;;;;4953534;28;20051;-93
2021/01/05 08:51:43;;;;;;;15.18;7.25;;;4.60;84.70;;;;;;4954105;28;20027;-94
2021/01/05 08:54:08;;;;;;;15.40;7.00;;;4.60;84.80;;;;;;4974156;28;20035;-94
2021/01/05 08:56:35;;;;;;;14.77;6.72;;;4.60;85.10;;;;;;4956290;28;20038;-92
2021/01/05 08:59:00;;;;;;;17.98;8.05;;;4.60;84.90;;;;;;4967191;28;20165;-94
2021/01/05 09:01:26;;;;;;;19.40;7.88;;;4.60;84.80;;;;;;4947464;28;20058;-88
2021/01/05 09:03:52;;;;;;;16.40;6.80;;;4.60;84.60;;;;;;4943708;28;20027;-88
2021/01/05 09:06:23;;;;;;;17.67;7.28;;;4.60;84.60;;;;;;4942054;28;20023;-88
2021/01/05 09:08:51;;;;;;;17.23;7.80;;;4.50;84.90;;;;;;4959829;28;20043;-93
2021/01/05 09:11:25;;;;;;;14.75;6.38;;;4.60;85.00;;;;;;4958983;28;20031;-93
2021/01/05 09:13:51;;;;;;;14.32;6.63;;;4.60;84.90;;;;;;4957388;28;20085;-90
2021/01/05 09:16:22;;;;;;;15.07;6.47;;;4.60;85.20;;;;;;4957998;28;20030;-90
2021/01/05 09:18:48;;;;;;;19.55;7.82;;;4.70;85.40;;;;;;4977033;28;20485;-91
2021/01/05 09:21:14;;;;;;;15.05;6.65;;;4.70;85.70;;;;;;4960994;28;20036;-93
2021/01/05 09:23:39;;;;;;;14.30;6.50;;;4.80;85.20;;;;;;4974061;28;20050;-94
2021/01/05 09:26:08;;;;;;;14.20;6.32;;;4.80;84.70;;;;;;4959898;28;20110;-96
2021/01/05 09:28:34;;;;;;;17.27;7.32;;;4.80;84.90;;;;;;4969190;28;20015;-89
2021/01/05 09:31:05;;;;;;;15.48;7.78;;;4.80;85.00;;;;;;4969212;28;20098;-94
2021/01/05 09:33:30;;;;;;;16.52;7.25;;;4.80;85.20;;;;;;4995747;28;20050;-92
2021/01/05 09:35:56;;;;;;;14.35;6.63;;;4.90;85.20;;;;;;4971920;28;20027;-94
2021/01/05 09:38:21;;;;;;;19.00;7.30;;;4.80;84.80;;;;;;4975276;28;20098;-93
2021/01/05 09:40:47;;;;;;;15.15;7.18;;;4.90;85.00;;;;;;4951117;28;20173;-94
2021/01/05 09:43:13;;;;;;;15.52;6.70;;;4.80;84.90;;;;;;4946659;28;20030;-94
2021/01/05 09:45:39;;;;;;;14.90;6.80;;;4.80;84.90;;;;;;4946081;28;20050;-93
2021/01/05 09:48:13;;;;;;;17.17;6.47;;;4.80;84.90;;;;;;4960453;28;20023;-92
2021/01/05 09:50:41;;;;;;;15.32;7.13;;;4.80;85.00;;;;;;4959713;28;20023;-91
2021/01/05 09:53:08;;;;;;;18.00;6.53;;;4.80;84.90;;;;;;4959119;28;20026;-90
2021/01/05 09:55:34;;;;;;;15.00;6.18;;;4.90;85.00;;;;;;4959371;28;20026;-90
2021/01/05 09:58:00;;;;;;;15.45;6.85;;;4.80;84.90;;;;;;4943526;28;20395;-94
2021/01/05 10:00:26;;;;;;;16.45;6.88;;;4.90;84.90;;;;;;4943423;28;20023;-92
2021/01/05 10:02:54;;;;;;;13.70;6.63;;;4.90;85.30;;;;;;4959849;28;20027;-95
2021/01/05 10:05:20;;;;;;;19.90;7.30;;;4.90;85.20;;;;;;4955497;28;20038;-92
2021/01/05 10:07:46;;;;;;;16.75;7.18;;;5.00;85.20;;;;;;4959851;28;20106;-92
2021/01/05 10:10:24;;;;;;;16.75;6.70;;;5.00;85.30;;;;;;4943236;28;20039;-91
2021/01/05 10:12:50;;;;;;;16.52;6.97;;;5.00;85.10;;;;;;4979719;28;20062;-92
2021/01/05 10:15:18;;;;;;;16.65;7.30;;;5.10;85.40;;;;;;4956238;28;20030;-91
2021/01/05 10:17:44;;;;;;;14.90;6.20;;;5.20;85.50;;;;;;4959878;28;20031;-92
2021/01/05 10:20:12;;;;;;;15.68;7.05;;;5.30;85.80;;;;;;4943304;28;20031;-92
2021/01/05 10:22:38;;;;;;;12.27;5.78;;;5.30;85.40;;;;;;4959292;28;20070;-92
2021/01/05 10:25:09;;;;;;;11.95;5.40;;;5.30;85.20;;;;;;4959042;28;20050;-92
2021/01/05 10:27:35;;;;;;;15.27;7.28;;;5.40;85.40;;;;;;4959248;28;20023;-93
2021/01/05 10:30:01;;;;;;;16.88;7.50;;;5.50;85.70;;;;;;4954868;28;20053;-93
2021/01/05 10:32:26;;;;;;;15.52;7.25;;;5.50;85.50;;;;;;4943299;28;20022;-93
2021/01/05 10:34:52;;;;;;;17.50;6.97;;;5.50;85.50;;;;;;4948209;28;20396;-94
2021/01/05 10:37:18;;;;;;;13.93;6.47;;;5.60;85.10;;;;;;4927377;28;20026;-94
2021/01/05 10:39:44;;;;;;;15.55;7.03;;;5.60;85.50;;;;;;4959382;28;20022;-95
2021/01/05 10:42:10;;;;;;;13.20;6.38;;;5.60;85.30;;;;;;4959428;28;20027;-95
2021/01/05 10:44:35;;;;;;;13.00;6.22;;;5.70;85.40;;;;;;4943068;28;20126;-94
2021/01/05 10:47:04;;;;;;;13.65;5.97;;;5.70;84.90;;;;;;4943521;28;20046;-94
2021/01/05 10:49:30;;;;;;;14.18;7.13;;;5.70;85.30;;;;;;4955622;28;20026;-93
2021/01/05 10:51:59;;;;;;;15.55;7.03;;;5.70;85.10;;;;;;4958934;28;20027;-92
2021/01/05 10:54:27;;;;;;;17.73;7.28;;;5.70;85.40;;;;;;4959029;28;20029;-92
2021/01/05 10:57:04;;;;;;;14.35;6.95;;;5.80;85.20;;;;;;4942919;28;20034;-92
2021/01/05 10:59:31;;;;;;;15.65;7.57;;;5.70;85.10;;;;;;4956106;28;20034;-96
2021/01/05 11:01:57;;;;;;;16.77;8.48;;;5.70;85.10;;;;;;4958522;28;20018;-93
2021/01/05 11:04:24;;;;;;;17.00;8.05;;;5.70;84.90;;;;;;4946418;28;20077;-93
2021/01/05 11:07:13;;;;;;;14.77;7.00;;;5.70;85.20;;;;;;4958057;28;20023;-91
2021/01/05 11:09:39;;;;;;;12.98;6.30;;;5.70;85.10;;;;;;4958641;28;20028;-94
2021/01/05 11:12:19;;;;;;;15.43;7.95;;;5.70;85.00;;;;;;4959988;28;20038;-94
2021/01/05 11:14:45;;;;;;;14.63;7.15;;;5.70;84.70;;;;;;4955192;28;20023;-93
2021/01/05 11:17:10;;;;;;;15.40;6.75;;;5.70;84.90;;;;;;4942375;28;20391;-92
2021/01/05 11:19:37;;;;;;;14.38;6.80;;;5.70;84.80;;;;;;4942028;28;20034;-90
2021/01/05 11:22:05;;;;;;;15.13;7.43;;;5.70;85.10;;;;;;4945035;28;20054;-90
2021/01/05 11:24:35;;;;;;;20.08;10.40;;;5.80;85.50;;;;;;4962268;28;20034;-89
2021/01/05 11:27:01;;;;;;;16.63;7.95;;;5.70;84.80;;;;;;4956984;28;20022;-92
2021/01/05 11:29:27;;;;;;;15.93;7.45;;;5.70;84.70;;;;;;4958829;28;20092;-90
2021/01/05 11:31:57;;;;;;;19.90;9.38;;;5.60;84.60;;;;;;4958874;28;20125;-91
2021/01/05 11:34:27;;;;;;;25.42;11.35;;;5.60;84.60;;;;;;4957495;28;20034;-89
2021/01/05 11:36:53;;;;;;;18.38;8.50;;;5.60;84.90;;;;;;4956455;28;20066;-89
2021/01/05 11:39:19;;;;;;;15.48;7.50;;;5.60;84.80;;;;;;4941085;28;20066;-89
2021/01/05 11:41:45;;;;;;;14.07;6.85;;;5.60;85.00;;;;;;4956966;28;20074;-91
2021/01/05 11:44:13;;;;;;;13.95;6.45;;;5.50;84.90;;;;;;4959284;28;20114;-87
2021/01/05 11:46:39;;;;;;;16.27;7.13;;;5.50;84.70;;;;;;4976186;28;20042;-88
2021/01/05 11:49:05;;;;;;;12.98;5.63;;;5.50;84.60;;;;;;4973976;28;20480;-88
2021/01/05 11:51:33;;;;;;;15.35;6.45;;;5.40;84.20;;;;;;4974114;28;20475;-88
2021/01/05 11:53:59;;;;;;;16.58;6.22;;;5.40;84.60;;;;;;4956369;28;20023;-88
2021/01/05 11:56:26;;;;;;;14.88;6.70;;;5.30;84.60;;;;;;4956829;28;20026;-89
2021/01/05 11:58:52;;;;;;;12.93;6.05;;;5.30;85.00;;;;;;4957005;28;20087;-88
2021/01/05 12:01:18;;;;;;;14.73;6.93;;;5.40;85.10;;;;;;4957203;28;20121;-89
2021/01/05 12:03:44;;;;;;;14.10;6.80;;;5.40;85.40;;;;;;4940791;28;20027;-88
2021/01/05 12:06:15;;;;;;;14.30;6.40;;;5.40;85.10;;;;;;4956641;28;20086;-88
2021/01/05 12:08:41;;;;;;;14.65;6.70;;;5.50;85.40;;;;;;4958536;28;20027;-87
2021/01/05 12:11:07;;;;;;;14.85;6.47;;;5.60;85.70;;;;;;4980586;28;20042;-95
2021/01/05 12:13:33;;;;;;;15.43;6.78;;;5.70;86.20;;;;;;4954972;28;20050;-93
2021/01/05 12:15:58;;;;;;;14.98;7.40;;;5.90;86.50;;;;;;4955422;28;20494;-93
2021/01/05 12:18:25;;;;;;;15.25;6.35;;;6.00;86.20;;;;;;4955577;28;20031;-94
2021/01/05 12:20:52;;;;;;;15.50;6.93;;;6.20;86.20;;;;;;4951888;28;20027;-92
2021/01/05 12:23:17;;;;;;;12.90;6.63;;;6.30;85.80;;;;;;4945237;28;20052;-91
2021/01/05 12:25:43;;;;;;;17.52;7.00;;;6.30;86.00;;;;;;4963817;28;20046;-95
2021/01/05 12:28:08;;;;;;;14.27;6.40;;;6.50;86.10;;;;;;4936578;28;20124;-91
2021/01/05 12:30:34;;;;;;;17.73;8.35;;;6.60;86.70;;;;;;4943133;28;20519;-90
2021/01/05 12:33:00;;;;;;;14.13;7.18;;;6.60;85.50;;;;;;4957393;28;20038;-83
2021/01/05 12:35:26;;;;;;;15.25;7.53;;;6.60;85.20;;;;;;4940580;28;20479;-95
2021/01/05 12:37:51;;;;;;;15.18;6.97;;;6.70;85.90;;;;;;4960269;28;20023;-95
2021/01/05 12:40:17;;;;;;;16.02;7.40;;;6.70;85.50;;;;;;4942284;28;20031;-93
2021/01/05 12:42:42;;;;;;;14.95;7.35;;;6.80;85.70;;;;;;4961069;28;20031;-95
2021/01/05 12:45:09;;;;;;;17.77;7.53;;;6.80;85.10;;;;;;4961609;28;20034;-96
2021/01/05 12:47:35;;;;;;;21.45;10.80;;;6.80;85.10;;;;;;4945429;28;20114;-92
2021/01/05 12:50:00;;;;;;;18.40;9.80;;;6.80;85.30;;;;;;4940919;28;20053;-94
2021/01/05 12:52:26;;;;;;;16.73;7.72;;;6.80;85.80;;;;;;4957012;28;20023;-94
2021/01/05 12:54:52;;;;;;;15.23;7.20;;;7.00;86.40;;;;;;4960810;28;20023;-94
2021/01/05 12:57:19;;;;;;;15.68;7.70;;;7.00;86.40;;;;;;4979563;28;20499;-95
2021/01/05 12:59:46;;;;;;;14.70;6.43;;;7.20;86.20;;;;;;4960918;28;20055;-95
2021/01/05 13:02:22;;;;;;;15.95;7.75;;;7.30;86.40;;;;;;4961627;28;20026;-95
2021/01/05 13:04:48;;;;;;;17.00;9.93;;;7.40;86.20;;;;;;4960911;28;20034;-93
2021/01/05 13:07:16;;;;;;;16.38;8.20;;;7.50;85.70;;;;;;4961659;28;20042;-94